Time;durP1;ratioP1;P1;durP2;ratioP2;P2;SDS_P1;SDS_P2;PMS_P1;PMS_P2;Temp;Humidity;BMP_temperature;BMP_pressure;BME280_temperature;BME280_humidity;BME280_pressure;Samples;Min_cycle;Max_cycle;Signal;HPM_P1;HPM_P2
2021/12/21 00:02:23;;;;;;;13.80;6.32;;;0.10;99.90;;;;;;4956298;28;20019;-45
2021/12/21 00:04:49;;;;;;;13.18;5.43;;;0.10;99.90;;;;;;4957248;28;20069;-47
2021/12/21 00:07:14;;;;;;;14.70;5.90;;;0.10;99.90;;;;;;4974691;28;20037;-46
2021/12/21 00:09:40;;;;;;;14.70;5.93;;;0.10;99.90;;;;;;4974318;28;20031;-46
2021/12/21 00:12:07;;;;;;;12.45;5.63;;;0.10;99.90;;;;;;4974496;28;20045;-44
2021/12/21 00:14:46;;;;;;;14.77;6.18;;;0.00;99.90;;;;;;4957390;28;20027;-44
2021/12/21 00:17:19;;;;;;;9.07;5.25;;;0.00;99.90;;;;;;4975254;28;20134;-47
2021/12/21 00:25:05;;;;;;;10.23;5.55;;;0.00;99.90;;;;;;4972761;28;20142;-46
2021/12/21 00:27:31;;;;;;;13.00;5.53;;;0.00;99.90;;;;;;4975274;28;20018;-44
2021/12/21 00:29:56;;;;;;;13.88;4.72;;;-0.10;99.90;;;;;;4974999;28;20113;-45
2021/12/21 00:32:23;;;;;;;13.80;5.45;;;-0.10;99.90;;;;;;4974869;28;20102;-46
2021/12/21 00:34:48;;;;;;;7.60;4.60;;;-0.10;99.90;;;;;;4975078;28;20110;-50
2021/12/21 00:37:14;;;;;;;11.18;4.78;;;-0.10;99.90;;;;;;4974869;28;20424;-46
2021/12/21 00:39:40;;;;;;;15.10;5.65;;;-0.20;99.90;;;;;;4974625;28;20491;-45
2021/12/21 00:42:06;;;;;;;9.20;5.43;;;-0.20;99.90;;;;;;4974843;28;20103;-46
2021/12/21 00:44:31;;;;;;;11.55;5.90;;;-0.30;99.90;;;;;;4974576;28;20030;-46
2021/12/21 00:46:57;;;;;;;11.82;5.03;;;-0.30;99.90;;;;;;4974568;28;20027;-48
2021/12/21 00:49:23;;;;;;;9.15;4.80;;;-0.40;99.90;;;;;;4973677;28;20410;-44
2021/12/21 00:51:49;;;;;;;11.35;5.45;;;-0.40;99.90;;;;;;4981681;23;20502;-45
2021/12/21 00:54:16;;;;;;;18.55;5.95;;;-0.40;99.90;;;;;;4972707;28;20098;-45
2021/12/21 00:56:42;;;;;;;14.60;5.47;;;-0.40;99.90;;;;;;4972724;28;20390;-46
2021/12/21 00:59:08;;;;;;;7.00;5.32;;;-0.40;99.90;;;;;;4972494;28;20027;-45
2021/12/21 01:01:35;;;;;;;10.35;5.13;;;-0.40;99.90;;;;;;4972509;28;20110;-44
2021/12/21 01:04:07;;;;;;;10.43;5.45;;;-0.50;99.90;;;;;;4972475;28;20035;-40
2021/12/21 01:09:09;;;;;;;5.93;4.47;;;-0.50;99.90;;;;;;4976684;28;20089;-41
2021/12/21 01:11:46;;;;;;;10.52;5.30;;;-0.40;99.90;;;;;;4976345;28;20487;-45
2021/12/21 01:17:07;;;;;;;15.25;5.30;;;-0.40;99.90;;;;;;4976837;28;20453;-46
2021/12/21 01:22:19;;;;;;;10.60;5.07;;;-0.40;99.90;;;;;;4976428;28;20045;-44
2021/12/21 01:27:54;;;;;;;13.30;6.25;;;-0.40;99.90;;;;;;4976267;28;20414;-41
2021/12/21 01:30:44;;;;;;;10.30;5.22;;;-0.50;99.90;;;;;;4975901;28;20479;-41
2021/12/21 01:35:56;;;;;;;10.82;4.88;;;-0.40;99.90;;;;;;4976008;28;20046;-46
2021/12/21 01:41:01;;;;;;;9.95;5.10;;;-0.50;99.90;;;;;;4975755;28;20023;-46
2021/12/21 01:43:42;;;;;;;9.35;5.97;;;-0.50;99.90;;;;;;4975779;28;20026;-45
2021/12/21 01:51:36;;;;;;;10.00;5.55;;;-0.60;99.90;;;;;;4975582;28;20077;-40
2021/12/21 01:54:02;;;;;;;8.30;5.00;;;-0.60;99.90;;;;;;4975610;28;20034;-42
2021/12/21 01:56:28;;;;;;;12.80;5.45;;;-0.70;99.90;;;;;;4975636;28;20058;-45
2021/12/21 01:58:53;;;;;;;12.30;5.70;;;-0.70;99.90;;;;;;4975491;28;20459;-45
2021/12/21 02:01:21;;;;;;;11.57;6.43;;;-0.70;99.90;;;;;;4975280;28;20023;-45
2021/12/21 02:03:48;;;;;;;8.05;5.50;;;-0.70;99.90;;;;;;4975362;28;20546;-45
2021/12/21 02:06:16;;;;;;;10.70;5.38;;;-0.60;99.90;;;;;;4975808;28;20494;-46
2021/12/21 02:08:43;;;;;;;13.00;6.30;;;-0.50;99.90;;;;;;4975399;28;20479;-46
2021/12/21 02:11:09;;;;;;;13.93;5.40;;;-0.50;99.90;;;;;;4975007;28;20034;-43
2021/12/21 02:13:37;;;;;;;9.23;5.60;;;-0.50;99.90;;;;;;4975335;28;20031;-46
2021/12/21 02:16:03;;;;;;;13.18;5.13;;;-0.50;99.90;;;;;;4975243;28;20023;-47
2021/12/21 02:18:54;;;;;;;14.82;6.80;;;-0.50;99.90;;;;;;4975099;28;20025;-44
2021/12/21 02:24:24;;;;;;;14.48;6.15;;;-0.70;99.90;;;;;;4953463;29;20030;-44
2021/12/21 02:26:55;;;;;;;12.70;5.85;;;-0.70;99.90;;;;;;4971272;28;20050;-44
2021/12/21 02:29:30;;;;;;;12.85;5.68;;;-0.80;99.90;;;;;;4974671;28;20038;-45
2021/12/21 02:31:56;;;;;;;8.90;5.03;;;-0.80;99.90;;;;;;4974973;28;20109;-49
2021/12/21 02:34:23;;;;;;;11.50;6.68;;;-0.80;99.90;;;;;;4974772;28;20026;-44
2021/12/21 02:36:51;;;;;;;10.55;5.28;;;-0.80;99.90;;;;;;4974824;28;20027;-46
2021/12/21 02:39:17;;;;;;;14.15;5.95;;;-0.80;99.90;;;;;;4973095;28;20506;-48
2021/12/21 02:41:44;;;;;;;16.42;6.68;;;-0.70;99.90;;;;;;4974772;28;20513;-48
2021/12/21 02:44:12;;;;;;;18.13;6.53;;;-0.70;99.90;;;;;;4974603;28;20035;-45
2021/12/21 02:46:39;;;;;;;14.88;5.75;;;-0.80;99.90;;;;;;4974955;28;20029;-45
2021/12/21 02:49:10;;;;;;;14.05;7.05;;;-0.70;99.90;;;;;;4974421;28;20027;-40
2021/12/21 02:51:43;;;;;;;12.85;5.78;;;-0.80;99.90;;;;;;4974022;28;20049;-48
2021/12/21 02:54:11;;;;;;;17.65;6.50;;;-0.90;99.90;;;;;;4974642;28;20105;-44
2021/12/21 02:56:37;;;;;;;13.30;6.20;;;-0.90;99.90;;;;;;4974446;28;20122;-49
2021/12/21 02:59:03;;;;;;;14.68;6.57;;;-1.10;99.90;;;;;;4974538;28;20070;-43
2021/12/21 03:01:29;;;;;;;11.40;6.05;;;-1.10;99.90;;;;;;4973221;28;20418;-40
2021/12/21 03:03:55;;;;;;;13.13;6.03;;;-1.10;99.90;;;;;;4974336;28;20023;-45
2021/12/21 03:06:59;;;;;;;11.02;5.93;;;-1.20;99.90;;;;;;4974643;28;20110;-48
2021/12/21 03:09:36;;;;;;;15.73;6.07;;;-1.00;99.90;;;;;;4974151;28;20251;-48
2021/12/21 03:12:10;;;;;;;14.43;6.60;;;-1.30;99.90;;;;;;4974173;28;20039;-46
2021/12/21 03:14:37;;;;;;;16.30;6.15;;;-1.30;99.90;;;;;;4974354;28;20064;-46
2021/12/21 03:17:04;;;;;;;10.95;5.97;;;-1.40;99.90;;;;;;4974153;28;20027;-43
2021/12/21 03:19:29;;;;;;;17.05;6.13;;;-1.40;99.90;;;;;;4973674;28;20421;-46
2021/12/21 03:21:55;;;;;;;10.02;5.43;;;-1.40;99.90;;;;;;4973992;28;20034;-45
2021/12/21 03:24:20;;;;;;;10.20;5.85;;;-1.40;99.90;;;;;;4972853;28;20121;-44
2021/12/21 03:26:47;;;;;;;13.02;6.47;;;-1.50;99.90;;;;;;4972699;28;20030;-49
2021/12/21 03:29:13;;;;;;;10.05;6.88;;;-1.50;99.90;;;;;;4972834;28;20454;-39
2021/12/21 03:31:39;;;;;;;12.55;6.20;;;-1.50;99.90;;;;;;4972787;28;20031;-44
2021/12/21 03:34:05;;;;;;;8.45;5.82;;;-1.40;99.90;;;;;;4972413;28;20023;-44
2021/12/21 03:36:31;;;;;;;10.75;5.82;;;-1.50;99.90;;;;;;4973828;28;20027;-45
2021/12/21 03:39:04;;;;;;;12.55;5.60;;;-1.50;99.90;;;;;;4974134;28;20485;-45
2021/12/21 03:41:30;;;;;;;15.90;6.18;;;-1.60;99.90;;;;;;4973668;28;20030;-39
2021/12/21 03:43:59;;;;;;;11.75;5.38;;;-1.50;99.90;;;;;;4973569;28;20646;-45
2021/12/21 03:46:25;;;;;;;11.77;5.18;;;-1.50;99.90;;;;;;4973757;28;20026;-46
2021/12/21 03:48:50;;;;;;;11.90;5.72;;;-1.50;99.90;;;;;;4973618;28;20027;-44
2021/12/21 03:51:18;;;;;;;13.27;5.43;;;-1.50;99.90;;;;;;4972801;28;20033;-40
2021/12/21 03:53:44;;;;;;;12.07;7.25;;;-1.50;99.90;;;;;;4973707;28;20034;-46
2021/12/21 03:58:36;;;;;;;12.45;5.13;;;-1.50;99.90;;;;;;4973670;28;20439;-44
2021/12/21 04:01:02;;;;;;;12.30;5.63;;;-1.50;99.90;;;;;;4973088;28;20026;-41
2021/12/21 04:03:27;;;;;;;10.32;5.20;;;-1.60;99.90;;;;;;4973352;28;20438;-45
2021/12/21 04:05:53;;;;;;;12.20;5.10;;;-1.60;99.90;;;;;;4973260;28;20023;-46
2021/12/21 04:08:18;;;;;;;10.25;5.93;;;-1.60;99.90;;;;;;4973398;28;20075;-47
2021/12/21 04:10:44;;;;;;;15.10;5.65;;;-1.60;99.90;;;;;;4973006;28;20030;-43
2021/12/21 04:13:10;;;;;;;10.50;5.53;;;-1.60;99.90;;;;;;4973328;28;20502;-41
2021/12/21 04:15:43;;;;;;;13.70;6.85;;;-1.60;99.90;;;;;;4973886;28;20423;-46
2021/12/21 04:18:12;;;;;;;11.32;5.55;;;-1.60;99.90;;;;;;4974024;28;20022;-48
2021/12/21 04:20:39;;;;;;;10.65;6.53;;;-1.60;99.90;;;;;;4972706;28;20033;-45
2021/12/21 04:23:06;;;;;;;14.32;6.70;;;-1.50;99.90;;;;;;4973218;28;20030;-45
2021/12/21 04:25:32;;;;;;;14.48;5.72;;;-1.50;99.90;;;;;;4973352;28;20356;-44
2021/12/21 04:27:58;;;;;;;10.18;5.55;;;-1.50;99.90;;;;;;4973197;28;20037;-45
2021/12/21 04:30:23;;;;;;;14.77;5.78;;;-1.50;99.90;;;;;;4972703;28;20458;-44
2021/12/21 04:32:49;;;;;;;21.52;6.20;;;-1.50;99.90;;;;;;4973494;28;20037;-45
2021/12/21 04:35:20;;;;;;;12.80;6.20;;;-1.50;99.90;;;;;;4972784;28;20041;-46
2021/12/21 04:37:51;;;;;;;10.13;5.47;;;-1.40;99.90;;;;;;4973159;28;20054;-44
2021/12/21 04:40:19;;;;;;;11.85;6.07;;;-1.40;99.90;;;;;;4972452;28;20019;-45
2021/12/21 04:42:45;;;;;;;7.82;5.85;;;-1.40;99.90;;;;;;4972865;28;20555;-44
2021/12/21 04:45:10;;;;;;;12.95;6.07;;;-1.40;99.90;;;;;;4973003;28;20030;-43
2021/12/21 04:47:36;;;;;;;9.20;6.05;;;-1.40;99.90;;;;;;4973212;28;20115;-40
2021/12/21 04:50:02;;;;;;;14.65;6.55;;;-1.40;99.90;;;;;;4972101;28;20023;-45
2021/12/21 04:52:27;;;;;;;14.95;6.22;;;-1.40;99.90;;;;;;4972611;28;20043;-44
2021/12/21 04:54:54;;;;;;;11.52;6.30;;;-1.50;99.90;;;;;;4972724;28;20027;-44
2021/12/21 04:57:20;;;;;;;14.02;7.70;;;-1.50;99.90;;;;;;4972585;28;20118;-41
2021/12/21 04:59:46;;;;;;;10.70;6.25;;;-1.50;99.90;;;;;;4971018;28;20122;-44
2021/12/21 05:02:11;;;;;;;11.65;5.65;;;-1.50;99.90;;;;;;4972856;28;20218;-44
2021/12/21 05:04:38;;;;;;;11.07;6.47;;;-1.40;99.90;;;;;;4972766;28;20497;-45
2021/12/21 05:07:04;;;;;;;11.52;6.57;;;-1.40;99.90;;;;;;4972534;28;20023;-44
2021/12/21 05:09:39;;;;;;;11.75;6.45;;;-1.40;99.90;;;;;;4972223;28;20062;-39
2021/12/21 05:12:07;;;;;;;11.15;6.18;;;-1.50;99.90;;;;;;4972449;28;20372;-41
2021/12/21 05:14:33;;;;;;;14.82;6.88;;;-1.50;99.90;;;;;;4972537;28;20026;-50
2021/12/21 05:16:59;;;;;;;16.83;6.30;;;-1.50;99.90;;;;;;4972491;28;20037;-45
2021/12/21 05:19:25;;;;;;;10.70;6.13;;;-1.50;99.90;;;;;;4972216;28;20019;-43
2021/12/21 05:21:50;;;;;;;14.10;6.57;;;-1.40;99.90;;;;;;4972372;28;20026;-48
2021/12/21 05:24:16;;;;;;;14.95;5.97;;;-1.40;99.90;;;;;;4972393;28;20033;-49
2021/12/21 05:26:42;;;;;;;14.68;6.05;;;-1.40;99.90;;;;;;4972298;28;20026;-46
2021/12/21 05:29:07;;;;;;;11.57;5.93;;;-1.40;99.90;;;;;;4972151;28;20030;-41
2021/12/21 05:31:33;;;;;;;9.60;5.60;;;-1.40;99.90;;;;;;4972253;28;20390;-39
2021/12/21 05:33:58;;;;;;;15.00;5.43;;;-1.30;99.90;;;;;;4972333;28;20026;-46
2021/12/21 05:36:24;;;;;;;15.45;6.38;;;-1.30;99.90;;;;;;4972326;28;20035;-47
2021/12/21 05:38:55;;;;;;;12.02;6.03;;;-1.30;99.90;;;;;;4972321;28;20454;-43
2021/12/21 05:41:28;;;;;;;13.93;5.90;;;-1.30;99.90;;;;;;4971937;28;20395;-46
2021/12/21 05:43:54;;;;;;;11.75;5.90;;;-1.30;99.90;;;;;;4972320;28;20114;-44
2021/12/21 05:46:20;;;;;;;15.07;7.05;;;-1.40;99.90;;;;;;4972274;28;20066;-44
2021/12/21 05:48:48;;;;;;;10.13;5.55;;;-1.40;99.90;;;;;;4972342;28;20086;-44
2021/12/21 05:51:13;;;;;;;13.38;5.85;;;-1.40;99.90;;;;;;4971348;28;20105;-44
2021/12/21 05:53:39;;;;;;;10.13;6.03;;;-1.40;99.90;;;;;;4974768;28;20170;-44
2021/12/21 05:56:04;;;;;;;11.43;6.28;;;-1.40;99.90;;;;;;4975596;28;20403;-43
2021/12/21 05:58:30;;;;;;;18.10;8.18;;;-1.40;99.90;;;;;;4975747;28;20027;-46
2021/12/21 06:00:56;;;;;;;9.82;5.97;;;-1.50;99.90;;;;;;4975435;28;20027;-44
2021/12/21 06:03:21;;;;;;;11.32;6.65;;;-1.60;99.90;;;;;;4975599;28;20023;-44
2021/12/21 06:05:47;;;;;;;13.00;5.85;;;-1.70;99.90;;;;;;4975558;28;20419;-44
2021/12/21 06:08:12;;;;;;;9.80;6.07;;;-1.70;99.90;;;;;;4975498;28;20031;-43
2021/12/21 06:10:41;;;;;;;10.40;5.95;;;-1.80;99.90;;;;;;4975363;28;20034;-44
2021/12/21 06:13:30;;;;;;;11.73;6.13;;;-1.80;99.90;;;;;;4975976;28;20019;-44
2021/12/21 06:26:24;;;;;;;14.90;6.78;;;-1.80;99.90;;;;;;4975241;28;20023;-45
2021/12/21 06:28:50;;;;;;;11.32;6.07;;;-1.90;99.90;;;;;;4975209;28;20082;-43
2021/12/21 06:31:16;;;;;;;12.45;5.88;;;-1.90;99.90;;;;;;4974734;28;20033;-44
2021/12/21 06:33:42;;;;;;;16.50;7.93;;;-1.90;99.90;;;;;;4975038;28;20034;-44
2021/12/21 06:36:09;;;;;;;11.55;6.38;;;-1.90;99.90;;;;;;4973687;28;20031;-43
2021/12/21 06:38:35;;;;;;;11.95;5.72;;;-2.00;99.90;;;;;;4975256;28;20078;-43
2021/12/21 06:41:00;;;;;;;14.57;6.13;;;-2.00;99.90;;;;;;4973366;28;20023;-44
2021/12/21 06:43:26;;;;;;;17.27;6.35;;;-2.00;99.90;;;;;;4974940;28;20050;-44
2021/12/21 06:53:33;;;;;;;18.00;6.78;;;-1.80;99.90;;;;;;5004008;23;20125;-43
2021/12/21 06:55:59;;;;;;;19.10;7.57;;;-1.80;99.90;;;;;;4996472;28;20031;-47
2021/12/21 06:58:24;;;;;;;16.15;6.80;;;-1.90;99.90;;;;;;4979076;28;20018;-46
2021/12/21 07:00:52;;;;;;;13.65;6.72;;;-1.90;99.90;;;;;;4996721;28;20042;-45
2021/12/21 07:03:19;;;;;;;15.57;6.32;;;-2.00;99.90;;;;;;4995737;28;20114;-45
2021/12/21 07:05:46;;;;;;;15.27;7.43;;;-2.00;99.90;;;;;;4977989;28;20077;-45
2021/12/21 07:08:16;;;;;;;12.95;6.82;;;-1.90;99.90;;;;;;4995956;28;20058;-48
2021/12/21 07:10:50;;;;;;;12.57;7.22;;;-1.90;99.90;;;;;;4995909;28;20019;-44
2021/12/21 07:18:46;;;;;;;12.65;7.68;;;-2.00;99.90;;;;;;4994753;28;20033;-44
2021/12/21 07:21:11;;;;;;;15.45;7.20;;;-2.00;99.90;;;;;;4995633;28;20038;-44
2021/12/21 07:23:37;;;;;;;22.05;7.85;;;-2.00;99.90;;;;;;4995467;28;20486;-44
2021/12/21 07:26:02;;;;;;;14.07;7.18;;;-2.00;99.90;;;;;;4996159;28;20135;-46
2021/12/21 07:28:28;;;;;;;12.75;7.13;;;-2.00;99.90;;;;;;4996260;28;20050;-43
2021/12/21 07:30:54;;;;;;;18.92;7.82;;;-2.00;99.90;;;;;;4995741;28;20057;-45
2021/12/21 07:33:20;;;;;;;22.60;7.47;;;-2.00;99.90;;;;;;4995565;28;20022;-46
2021/12/21 07:35:45;;;;;;;23.23;7.93;;;-2.00;99.90;;;;;;4995401;28;20525;-44
2021/12/21 07:38:11;;;;;;;17.23;7.53;;;-2.00;99.90;;;;;;4995950;28;20072;-46
2021/12/21 07:40:38;;;;;;;18.73;6.63;;;-2.00;99.90;;;;;;4995101;28;20092;-46
2021/12/21 07:43:04;;;;;;;15.10;6.97;;;-2.00;99.90;;;;;;4995188;28;20388;-44
2021/12/21 07:45:30;;;;;;;13.15;6.80;;;-2.00;99.90;;;;;;4995725;28;20104;-48
2021/12/21 07:47:55;;;;;;;17.13;7.57;;;-2.00;99.90;;;;;;4977942;28;20037;-46
2021/12/21 07:50:21;;;;;;;13.32;7.15;;;-2.00;99.90;;;;;;4992209;28;20046;-48
2021/12/21 07:52:47;;;;;;;12.27;7.10;;;-2.00;99.90;;;;;;5007054;28;20033;-47
2021/12/21 07:55:13;;;;;;;24.83;7.28;;;-2.00;99.90;;;;;;4987729;28;20034;-47
2021/12/21 07:57:39;;;;;;;18.27;6.97;;;-2.00;99.90;;;;;;4981961;28;20073;-51
2021/12/21 08:00:07;;;;;;;21.55;8.20;;;-2.00;99.90;;;;;;4974029;28;20027;-46
2021/12/21 08:02:33;;;;;;;17.83;8.05;;;-2.00;99.90;;;;;;4975611;28;20023;-45
2021/12/21 08:04:59;;;;;;;13.93;7.78;;;-1.90;99.90;;;;;;4985594;28;20093;-48
2021/12/21 08:07:31;;;;;;;14.45;7.95;;;-1.90;99.90;;;;;;4967146;28;20030;-51
2021/12/21 08:09:58;;;;;;;14.93;7.30;;;-1.90;99.90;;;;;;4985423;28;20435;-49
2021/12/21 08:12:24;;;;;;;20.33;8.23;;;-2.00;99.90;;;;;;4974949;28;20391;-51
2021/12/21 08:14:51;;;;;;;24.88;11.15;;;-1.90;99.90;;;;;;4975055;28;20041;-49
2021/12/21 08:17:18;;;;;;;17.88;7.60;;;-1.90;99.90;;;;;;4958769;28;20118;-57
2021/12/21 08:19:45;;;;;;;16.20;7.93;;;-1.80;99.90;;;;;;4974360;28;20037;-45
2021/12/21 08:22:12;;;;;;;19.77;8.25;;;-1.80;99.90;;;;;;4973461;28;20030;-44
2021/12/21 08:24:39;;;;;;;14.13;8.10;;;-1.80;99.90;;;;;;4973609;28;20458;-43
2021/12/21 08:27:05;;;;;;;9.40;6.93;;;-1.70;99.90;;;;;;4973342;28;20197;-43
2021/12/21 08:29:31;;;;;;;12.65;7.72;;;-1.70;99.90;;;;;;4973158;28;20035;-45
2021/12/21 08:31:58;;;;;;;18.02;7.60;;;-1.70;99.90;;;;;;4973056;28;20026;-46
2021/12/21 08:34:23;;;;;;;16.33;8.88;;;-1.70;99.90;;;;;;4973203;28;20038;-43
2021/12/21 08:36:50;;;;;;;13.65;6.90;;;-1.80;99.90;;;;;;4973640;28;20029;-46
2021/12/21 08:39:17;;;;;;;18.02;6.78;;;-1.70;99.90;;;;;;4972856;28;20022;-44
2021/12/21 08:41:44;;;;;;;13.05;7.07;;;-1.60;99.90;;;;;;4973061;28;20030;-44
2021/12/21 08:44:11;;;;;;;15.45;8.52;;;-1.60;99.90;;;;;;4972949;28;20019;-44
2021/12/21 08:46:40;;;;;;;12.25;8.00;;;-1.50;99.90;;;;;;4972889;28;20061;-43
2021/12/21 08:49:06;;;;;;;12.52;7.15;;;-1.40;99.90;;;;;;4972760;28;20030;-44
2021/12/21 08:51:32;;;;;;;14.65;6.95;;;-0.70;99.90;;;;;;4972942;28;20501;-44
2021/12/21 08:53:58;;;;;;;9.13;6.05;;;-0.20;99.90;;;;;;4972708;28;20114;-43
2021/12/21 08:56:24;;;;;;;9.27;6.00;;;0.60;99.90;;;;;;4972913;28;20030;-45
2021/12/21 08:58:50;;;;;;;8.45;5.50;;;1.40;99.90;;;;;;4972970;28;20034;-45
2021/12/21 09:01:17;;;;;;;17.17;5.70;;;2.10;99.90;;;;;;4972856;28;20023;-45
2021/12/21 09:03:46;;;;;;;18.52;5.68;;;2.70;99.90;;;;;;4972709;28;20106;-46
2021/12/21 09:06:12;;;;;;;10.23;5.55;;;3.10;99.90;;;;;;4973021;28;20454;-46
2021/12/21 09:08:38;;;;;;;10.52;6.47;;;3.60;99.90;;;;;;4972537;28;20027;-46
2021/12/21 09:11:05;;;;;;;11.95;5.57;;;4.10;99.90;;;;;;4972617;28;20036;-45
2021/12/21 09:13:32;;;;;;;11.20;5.07;;;4.70;99.90;;;;;;4972649;28;20034;-45
2021/12/21 09:15:58;;;;;;;7.88;5.30;;;5.10;99.90;;;;;;4973471;28;20038;-46
2021/12/21 09:18:24;;;;;;;9.98;5.57;;;5.00;99.00;;;;;;4972759;28;20019;-49
2021/12/21 09:20:50;;;;;;;8.50;5.68;;;4.80;99.10;;;;;;4972754;28;20051;-48
2021/12/21 09:23:15;;;;;;;9.85;5.57;;;4.70;99.90;;;;;;4972475;28;20027;-48
2021/12/21 09:25:41;;;;;;;10.85;5.80;;;4.70;99.90;;;;;;4972770;28;20026;-48
2021/12/21 09:28:08;;;;;;;10.25;6.20;;;4.80;99.90;;;;;;4974736;28;20078;-49
2021/12/21 09:30:33;;;;;;;15.02;5.55;;;5.00;99.80;;;;;;4976256;28;20035;-47
2021/12/21 09:33:00;;;;;;;8.00;4.95;;;5.40;98.30;;;;;;4976339;28;20026;-48
2021/12/21 09:35:26;;;;;;;9.18;5.25;;;5.30;98.50;;;;;;4975911;28;20114;-47
2021/12/21 09:37:52;;;;;;;14.43;6.22;;;5.40;98.00;;;;;;4976711;28;20061;-45
2021/12/21 09:40:25;;;;;;;7.22;5.10;;;5.10;98.60;;;;;;4976002;28;20027;-47
2021/12/21 09:42:51;;;;;;;13.85;5.75;;;5.30;98.60;;;;;;4976116;28;20022;-47
2021/12/21 09:45:17;;;;;;;8.52;5.88;;;4.80;98.90;;;;;;4976852;28;20145;-49
2021/12/21 09:47:44;;;;;;;14.70;6.10;;;4.20;99.90;;;;;;4958941;28;20042;-47
2021/12/21 09:50:13;;;;;;;14.82;5.82;;;3.80;99.90;;;;;;4975904;28;20106;-49
2021/12/21 09:52:39;;;;;;;12.27;7.32;;;3.50;99.90;;;;;;4976835;28;20023;-49
2021/12/21 09:55:08;;;;;;;10.70;6.35;;;3.50;99.90;;;;;;4976838;28;20543;-46
2021/12/21 09:57:34;;;;;;;11.10;6.90;;;3.60;99.90;;;;;;4959263;28;20089;-50
2021/12/21 10:00:00;;;;;;;11.65;5.85;;;3.40;99.90;;;;;;4976116;28;20027;-46
2021/12/21 10:02:27;;;;;;;10.25;6.68;;;3.30;99.90;;;;;;4976144;28;20039;-50
2021/12/21 10:04:53;;;;;;;13.98;7.18;;;3.40;99.90;;;;;;4976021;28;20062;-48
2021/12/21 10:07:22;;;;;;;13.15;7.07;;;3.50;99.90;;;;;;4976688;28;20368;-47
2021/12/21 10:09:49;;;;;;;12.80;7.30;;;3.50;99.90;;;;;;4975994;28;20030;-47
2021/12/21 10:12:29;;;;;;;12.43;5.88;;;3.00;99.90;;;;;;4975895;28;20030;-49
2021/12/21 10:15:20;;;;;;;12.73;6.40;;;2.90;99.90;;;;;;4975773;28;20050;-48
2021/12/21 10:17:54;;;;;;;9.35;6.55;;;2.70;99.90;;;;;;4976000;28;20106;-49
2021/12/21 10:20:44;;;;;;;20.13;6.05;;;2.60;99.90;;;;;;4975492;28;20023;-50
2021/12/21 10:23:28;;;;;;;12.63;6.55;;;2.50;99.90;;;;;;4958188;28;20042;-47
2021/12/21 10:26:12;;;;;;;10.25;6.15;;;2.40;99.90;;;;;;4975732;28;20075;-47
2021/12/21 10:28:49;;;;;;;13.13;6.53;;;2.60;99.90;;;;;;4975372;28;20114;-48
2021/12/21 10:31:27;;;;;;;10.70;5.90;;;2.90;99.90;;;;;;4975294;28;20030;-46
2021/12/21 10:33:56;;;;;;;12.93;6.43;;;3.20;99.90;;;;;;4975514;28;20081;-47
2021/12/21 10:36:24;;;;;;;11.70;7.05;;;3.40;99.90;;;;;;4958031;28;20110;-50
2021/12/21 10:38:54;;;;;;;8.07;6.15;;;3.50;99.90;;;;;;4975013;28;20367;-47
2021/12/21 10:41:39;;;;;;;9.10;6.50;;;3.50;99.90;;;;;;4974936;28;20510;-48
2021/12/21 10:44:09;;;;;;;10.45;6.15;;;3.90;99.90;;;;;;4974939;28;20439;-48
2021/12/21 10:46:37;;;;;;;14.38;5.97;;;4.00;99.90;;;;;;4975306;28;20034;-48
2021/12/21 10:49:18;;;;;;;12.25;5.80;;;4.00;99.90;;;;;;4975120;28;20027;-46
2021/12/21 10:51:54;;;;;;;8.85;5.80;;;3.70;99.90;;;;;;4974963;28;20638;-47
2021/12/21 10:54:44;;;;;;;15.85;6.43;;;3.40;99.90;;;;;;4975346;28;20494;-48
2021/12/21 10:57:17;;;;;;;10.13;6.80;;;3.20;99.90;;;;;;4975380;28;20080;-47
2021/12/21 10:59:45;;;;;;;13.90;6.82;;;2.90;99.90;;;;;;4974695;28;20027;-51
2021/12/21 11:02:13;;;;;;;12.07;6.97;;;2.90;99.90;;;;;;4974760;28;20019;-51
2021/12/21 11:04:41;;;;;;;16.92;8.88;;;2.90;99.90;;;;;;4974956;28;20027;-49
2021/12/21 11:07:25;;;;;;;14.13;7.82;;;2.90;99.90;;;;;;4975060;28;20096;-51
2021/12/21 11:10:15;;;;;;;13.52;8.25;;;2.90;99.90;;;;;;4974777;28;20397;-48
2021/12/21 11:12:48;;;;;;;14.68;8.13;;;2.80;99.90;;;;;;4974652;28;20019;-51
2021/12/21 11:15:16;;;;;;;15.55;8.77;;;2.90;99.90;;;;;;4974140;28;20027;-49
2021/12/21 11:17:42;;;;;;;16.50;9.02;;;3.00;99.90;;;;;;4974679;28;20109;-50
2021/12/21 11:20:10;;;;;;;17.35;8.10;;;2.90;99.90;;;;;;4974410;28;20019;-48
2021/12/21 11:22:39;;;;;;;15.65;8.82;;;2.80;99.90;;;;;;4973557;28;20027;-50
2021/12/21 11:25:06;;;;;;;16.10;7.80;;;2.80;99.90;;;;;;4956895;28;20038;-50
2021/12/21 11:27:37;;;;;;;15.85;7.07;;;2.70;99.90;;;;;;4973917;28;20035;-52
2021/12/21 11:30:07;;;;;;;15.45;7.82;;;2.60;99.90;;;;;;4974344;28;20042;-46
2021/12/21 11:32:39;;;;;;;17.52;7.20;;;2.60;99.90;;;;;;4972895;28;20495;-49
2021/12/21 11:37:35;;;;;;;10.20;6.88;;;2.50;99.90;;;;;;4973156;28;20550;-48
2021/12/21 11:40:00;;;;;;;15.70;7.78;;;2.60;99.90;;;;;;4956378;28;20030;-54
2021/12/21 11:42:30;;;;;;;12.57;7.13;;;2.60;99.90;;;;;;4973736;28;20026;-52
2021/12/21 11:45:12;;;;;;;10.90;6.88;;;2.50;99.90;;;;;;4973932;28;20363;-50
2021/12/21 11:47:56;;;;;;;12.25;5.65;;;2.50;99.90;;;;;;4973884;28;20023;-47
2021/12/21 11:50:23;;;;;;;15.43;7.20;;;2.50;99.90;;;;;;4973122;28;20026;-50
2021/12/21 11:52:50;;;;;;;12.15;6.57;;;2.50;99.90;;;;;;4973653;28;20031;-47
2021/12/21 11:55:21;;;;;;;9.45;5.78;;;2.50;99.90;;;;;;4973992;28;20418;-50
2021/12/21 11:57:49;;;;;;;10.50;5.57;;;2.50;99.90;;;;;;4973494;28;20490;-51
2021/12/21 12:00:16;;;;;;;10.43;5.20;;;2.50;99.90;;;;;;4973235;28;20065;-52
2021/12/21 12:02:43;;;;;;;14.30;7.90;;;2.50;99.90;;;;;;4973403;28;20541;-48
2021/12/21 12:05:25;;;;;;;8.13;5.35;;;2.60;99.90;;;;;;4973743;28;20102;-47
2021/12/21 12:08:11;;;;;;;15.35;6.35;;;2.60;99.90;;;;;;4955907;28;20062;-48
2021/12/21 12:10:47;;;;;;;9.95;6.13;;;2.60;99.90;;;;;;4972844;28;20026;-50
2021/12/21 12:13:32;;;;;;;11.18;5.43;;;2.70;99.90;;;;;;4972947;28;20509;-50
2021/12/21 12:16:02;;;;;;;9.07;5.07;;;2.70;99.90;;;;;;4973131;28;20031;-48
2021/12/21 12:18:37;;;;;;;8.38;5.15;;;2.80;99.90;;;;;;4973117;28;20554;-52
2021/12/21 12:21:19;;;;;;;7.78;5.07;;;2.90;99.90;;;;;;4972823;28;20027;-53
2021/12/21 12:23:55;;;;;;;11.65;5.70;;;2.90;99.90;;;;;;4972513;28;20023;-50
2021/12/21 12:26:37;;;;;;;13.80;5.70;;;3.00;99.90;;;;;;4955570;28;20033;-51
2021/12/21 12:29:13;;;;;;;8.10;5.50;;;2.90;99.90;;;;;;4972694;28;20097;-50
2021/12/21 12:31:41;;;;;;;8.63;6.07;;;2.90;99.90;;;;;;4972672;28;20058;-51
2021/12/21 12:34:07;;;;;;;8.07;5.13;;;3.00;99.90;;;;;;4972054;28;20027;-49
2021/12/21 12:36:50;;;;;;;8.85;4.78;;;3.00;99.90;;;;;;4972912;28;20058;-47
2021/12/21 12:39:37;;;;;;;8.30;4.38;;;3.00;99.90;;;;;;4972589;28;20021;-53
2021/12/21 12:42:09;;;;;;;10.77;5.90;;;3.00;99.90;;;;;;4972782;28;20027;-48
2021/12/21 12:44:40;;;;;;;9.20;4.78;;;3.10;99.90;;;;;;4972340;28;20447;-46
2021/12/21 12:47:09;;;;;;;8.35;4.93;;;3.20;99.90;;;;;;4972579;28;20073;-49
2021/12/21 12:49:40;;;;;;;7.22;4.10;;;3.10;99.90;;;;;;4972184;28;20027;-45
2021/12/21 12:52:13;;;;;;;13.07;4.60;;;3.10;99.90;;;;;;4972608;28;20693;-47
2021/12/21 12:54:44;;;;;;;8.18;4.78;;;3.10;99.90;;;;;;4973797;28;20546;-45
2021/12/21 12:57:22;;;;;;;11.20;6.00;;;3.20;99.90;;;;;;4973133;28;20538;-45
2021/12/21 12:59:53;;;;;;;10.27;4.25;;;3.10;99.90;;;;;;4972878;28;20073;-47
2021/12/21 13:02:19;;;;;;;11.15;5.18;;;3.10;99.90;;;;;;4957757;28;20122;-46
2021/12/21 13:04:45;;;;;;;21.25;5.47;;;3.20;99.90;;;;;;4976555;28;20058;-48
2021/12/21 13:07:10;;;;;;;7.38;4.78;;;3.20;99.90;;;;;;4959314;28;20026;-43
2021/12/21 13:09:36;;;;;;;5.28;4.78;;;3.10;99.90;;;;;;4976405;28;20038;-46
2021/12/21 13:12:01;;;;;;;13.60;5.43;;;3.10;99.90;;;;;;4958966;28;20027;-49
2021/12/21 13:14:27;;;;;;;6.20;4.47;;;3.10;99.90;;;;;;4976207;28;20035;-47
2021/12/21 13:16:57;;;;;;;13.05;5.40;;;3.10;99.90;;;;;;4976254;28;20039;-46
2021/12/21 13:19:25;;;;;;;5.82;4.68;;;3.10;99.90;;;;;;4975926;28;20015;-48
2021/12/21 13:21:56;;;;;;;9.98;5.32;;;3.10;99.90;;;;;;4976197;28;20486;-45
2021/12/21 13:24:23;;;;;;;8.98;4.60;;;3.10;99.90;;;;;;4976173;28;20023;-46
2021/12/21 13:26:55;;;;;;;9.10;4.57;;;3.10;99.90;;;;;;4976171;28;20033;-45
2021/12/21 13:29:31;;;;;;;7.97;4.50;;;3.10;99.90;;;;;;4975749;28;20058;-46
2021/12/21 13:32:04;;;;;;;12.85;4.60;;;3.10;99.90;;;;;;4976200;28;20057;-49
2021/12/21 13:34:30;;;;;;;8.23;4.55;;;3.00;99.90;;;;;;4976159;28;20039;-46
2021/12/21 13:36:58;;;;;;;7.40;4.65;;;3.00;99.90;;;;;;4976025;28;20035;-46
2021/12/21 13:39:43;;;;;;;7.85;4.68;;;3.10;99.90;;;;;;4958167;28;20019;-45
2021/12/21 13:42:18;;;;;;;7.47;5.00;;;3.10;99.90;;;;;;4975976;28;20507;-46
2021/12/21 13:44:44;;;;;;;8.10;4.60;;;3.20;99.90;;;;;;4958432;28;20406;-46
2021/12/21 13:47:15;;;;;;;8.88;5.07;;;3.30;99.90;;;;;;4975917;28;20023;-47
2021/12/21 13:50:26;;;;;;;9.80;5.03;;;3.30;99.90;;;;;;4958052;28;20118;-49
2021/12/21 13:52:59;;;;;;;21.73;12.50;;;3.30;99.90;;;;;;4973769;28;20054;-51